createdAt,value
2019-01-11T00:04:41.735Z,3.30
2019-01-11T00:07:50.801Z,3.30
2019-01-11T00:10:52.510Z,3.20
2019-01-11T00:13:34.563Z,3.10
2019-01-11T00:16:16.814Z,3.10
2019-01-11T00:18:59.373Z,3.10
2019-01-11T00:21:41.613Z,3.10
2019-01-11T00:24:24.059Z,3.10
2019-01-11T00:27:06.759Z,3.20
2019-01-11T00:29:48.994Z,3.20
2019-01-11T00:32:31.489Z,3.20
2019-01-11T00:35:13.887Z,3.10
2019-01-11T00:37:55.758Z,3.00
2019-01-11T00:40:37.987Z,3.10
2019-01-11T00:43:20.205Z,3.20
2019-01-11T00:46:02.431Z,3.20
2019-01-11T00:48:44.925Z,3.20
2019-01-11T00:51:26.928Z,3.20
2019-01-11T00:54:09.026Z,3.20
2019-01-11T00:56:51.614Z,3.10
2019-01-11T00:59:33.647Z,3.20
2019-01-11T01:02:15.758Z,3.20
2019-01-11T01:04:57.979Z,3.20
2019-01-11T01:07:40.395Z,3.20
2019-01-11T01:10:22.584Z,3.20
2019-01-11T01:13:12.322Z,3.20
2019-01-11T01:16:21.492Z,3.10
2019-01-11T01:19:30.645Z,3.10
2019-01-11T01:22:39.640Z,3.00
2019-01-11T01:25:48.687Z,3.00
2019-01-11T01:28:57.734Z,3.10
2019-01-11T01:35:08.705Z,3.20
2019-01-11T01:41:34.045Z,3.00
2019-01-11T01:44:43.171Z,2.90
2019-01-11T01:47:52.293Z,2.90
2019-01-11T01:54:09.864Z,2.70
2019-01-11T01:57:18.890Z,2.70
2019-01-11T02:03:44.105Z,2.90
2019-01-11T02:06:53.509Z,2.80
2019-01-11T02:09:55.589Z,2.90
2019-01-11T02:12:37.566Z,3.00
2019-01-11T02:15:19.483Z,3.00
2019-01-11T02:18:02.421Z,2.90
2019-01-11T02:20:44.647Z,2.90
2019-01-11T02:23:26.624Z,2.90
2019-01-11T02:26:09.045Z,2.90
2019-01-11T02:28:50.976Z,3.00
2019-01-11T02:31:33.329Z,2.90
2019-01-11T02:34:15.121Z,2.80
2019-01-11T02:36:57.456Z,2.90
2019-01-11T02:39:39.914Z,3.00
2019-01-11T02:42:22.232Z,2.90
2019-01-11T02:45:04.718Z,3.00
2019-01-11T02:47:46.989Z,3.00
2019-01-11T02:50:29.411Z,3.10
2019-01-11T02:53:11.315Z,3.10
2019-01-11T02:55:53.854Z,3.20
2019-01-11T02:58:35.888Z,3.10
2019-01-11T03:01:17.737Z,3.10
2019-01-11T03:04:00.042Z,3.10
2019-01-11T03:06:42.269Z,3.00
2019-01-11T03:09:24.499Z,2.90
2019-01-11T03:12:08.082Z,2.90
2019-01-11T03:14:50.481Z,3.00
2019-01-11T03:17:32.557Z,3.00
2019-01-11T03:20:14.925Z,3.00
2019-01-11T03:22:56.951Z,3.00
2019-01-11T03:25:38.996Z,3.00
2019-01-11T03:28:21.276Z,3.00
2019-01-11T03:34:18.788Z,3.00
2019-01-11T03:37:00.603Z,3.10
2019-01-11T03:39:42.623Z,3.00
2019-01-11T03:42:24.744Z,3.00
2019-01-11T03:45:06.570Z,3.10
2019-01-11T03:47:48.857Z,3.10
2019-01-11T03:50:31.361Z,3.10
2019-01-11T03:53:13.655Z,3.00
2019-01-11T03:55:55.964Z,3.00
2019-01-11T03:58:37.781Z,2.90
2019-01-11T04:01:20.075Z,2.90
2019-01-11T04:04:02.431Z,2.90
2019-01-11T04:06:44.726Z,2.90
2019-01-11T04:09:27.281Z,2.90
2019-01-11T04:12:09.345Z,2.90
2019-01-11T04:14:51.312Z,2.90
2019-01-11T04:17:33.696Z,2.90
2019-01-11T04:20:16.476Z,2.90
2019-01-11T04:22:58.736Z,2.90
2019-01-11T04:25:42.998Z,3.00
2019-01-11T04:28:25.010Z,3.00
2019-01-11T04:31:07.464Z,3.00
2019-01-11T04:33:49.871Z,3.00
2019-01-11T04:36:31.704Z,2.90
2019-01-11T04:39:13.857Z,2.90
2019-01-11T04:41:56.256Z,3.00
2019-01-11T04:44:38.551Z,3.00
2019-01-11T04:47:20.934Z,3.00
2019-01-11T04:50:09.338Z,3.00
2019-01-11T04:52:35.808Z,2.90
2019-01-11T04:55:25.585Z,2.90
2019-01-11T05:05:20.311Z,2.90
2019-01-11T05:08:29.490Z,2.80
2019-01-11T05:11:38.539Z,2.80
2019-01-11T05:14:20.841Z,2.80
2019-01-11T05:17:02.838Z,2.80
2019-01-11T05:19:44.813Z,2.90
2019-01-11T05:22:27.029Z,2.80
2019-01-11T05:25:09.801Z,2.80
2019-01-11T05:27:52.606Z,2.80
2019-01-11T05:30:34.356Z,2.80
2019-01-11T05:33:16.776Z,2.80
2019-01-11T05:38:41.836Z,2.80
2019-01-11T05:41:23.833Z,2.80
2019-01-11T05:44:06.311Z,2.70
2019-01-11T05:46:48.915Z,2.80
2019-01-11T05:49:31.086Z,2.70
2019-01-11T05:52:13.071Z,2.70
2019-01-11T05:54:55.321Z,2.70
2019-01-11T05:57:38.920Z,2.80
2019-01-11T06:00:20.869Z,2.80
2019-01-11T06:03:03.761Z,2.90
2019-01-11T06:05:45.974Z,2.90
2019-01-11T06:08:28.634Z,2.90
2019-01-11T06:11:11.313Z,2.80
2019-01-11T06:13:53.337Z,2.80
2019-01-11T06:16:35.724Z,2.80
2019-01-11T06:19:17.749Z,2.70
2019-01-11T06:22:00.002Z,2.60
2019-01-11T06:24:41.758Z,2.50
2019-01-11T06:27:24.371Z,2.50
2019-01-11T06:30:06.118Z,2.50
2019-01-11T06:32:48.212Z,2.40
2019-01-11T06:35:30.517Z,2.40
2019-01-11T06:38:12.700Z,2.30
2019-01-11T06:40:54.807Z,2.40
2019-01-11T06:43:38.780Z,2.30
2019-01-11T06:46:22.883Z,2.30
2019-01-11T06:49:05.323Z,2.30
2019-01-11T06:51:47.934Z,2.30
2019-01-11T06:54:30.275Z,2.40
2019-01-11T06:57:12.708Z,2.40
2019-01-11T06:59:56.123Z,2.40
2019-01-11T07:02:38.897Z,2.50
2019-01-11T07:05:21.700Z,2.60
2019-01-11T07:08:04.115Z,2.60
2019-01-11T07:10:46.356Z,2.60
2019-01-11T07:13:28.987Z,2.60
2019-01-11T07:16:11.109Z,2.60
2019-01-11T07:18:53.775Z,2.60
2019-01-11T07:21:36.025Z,2.60
2019-01-11T07:24:17.937Z,2.70
2019-01-11T07:27:00.398Z,2.60
2019-01-11T07:29:42.674Z,2.60
2019-01-11T07:32:24.622Z,2.60
2019-01-11T07:35:07.022Z,2.60
2019-01-11T07:37:49.600Z,2.60
2019-01-11T07:40:32.084Z,2.70
2019-01-11T07:43:15.589Z,2.60
2019-01-11T07:45:57.703Z,2.60
2019-01-11T07:48:39.549Z,2.60
2019-01-11T07:51:21.544Z,2.60
2019-01-11T07:54:05.535Z,2.60
2019-01-11T07:56:48.118Z,2.60
2019-01-11T07:59:29.949Z,2.60
2019-01-11T08:02:12.022Z,2.60
2019-01-11T08:04:54.585Z,2.60
2019-01-11T08:07:36.920Z,2.60
2019-01-11T08:10:19.008Z,2.60
2019-01-11T08:13:01.357Z,2.70
2019-01-11T08:15:43.531Z,2.60
2019-01-11T08:18:26.128Z,2.60
2019-01-11T08:21:08.650Z,2.60
2019-01-11T08:23:50.551Z,2.60
2019-01-11T08:26:33.217Z,2.60
2019-01-11T08:29:15.365Z,2.60
2019-01-11T08:31:57.906Z,2.60
2019-01-11T08:34:40.087Z,2.60
2019-01-11T08:37:22.804Z,2.60
2019-01-11T08:40:05.378Z,2.60
2019-01-11T08:42:47.658Z,2.60
2019-01-11T08:45:28.340Z,2.70
2019-01-11T08:54:47.295Z,2.60
2019-01-11T09:04:13.435Z,2.60
2019-01-11T09:07:03.085Z,2.60
2019-01-11T09:10:12.645Z,2.60
2019-01-11T09:13:14.549Z,2.60
2019-01-11T09:15:57.021Z,2.50
2019-01-11T09:21:41.782Z,2.60
2019-01-11T09:24:23.863Z,2.50
2019-01-11T09:27:06.029Z,2.60
2019-01-11T09:29:49.035Z,2.60
2019-01-11T09:32:31.353Z,2.60
2019-01-11T09:35:14.120Z,2.50
2019-01-11T09:37:56.619Z,2.50
2019-01-11T09:40:38.729Z,2.60
2019-01-11T09:43:20.670Z,2.50
2019-01-11T09:46:02.684Z,2.60
2019-01-11T09:48:44.688Z,2.60
2019-01-11T09:51:27.361Z,2.60
2019-01-11T09:54:09.299Z,2.60
2019-01-11T09:56:51.156Z,2.70
2019-01-11T09:59:35.178Z,2.60
2019-01-11T10:02:37.191Z,2.60
2019-01-11T10:05:19.529Z,2.50
2019-01-11T10:08:01.799Z,2.50
2019-01-11T10:10:43.671Z,2.50
2019-01-11T10:13:25.809Z,2.50
2019-01-11T10:16:08.420Z,2.50
2019-01-11T10:18:50.389Z,2.50
2019-01-11T10:21:32.719Z,2.50
2019-01-11T10:24:14.629Z,2.50
2019-01-11T10:26:56.385Z,2.50
2019-01-11T10:29:38.581Z,2.60
2019-01-11T10:32:21.022Z,2.60
2019-01-11T10:35:03.264Z,2.60
2019-01-11T10:37:45.500Z,2.60
2019-01-11T10:40:27.947Z,2.60
2019-01-11T10:43:10.207Z,2.60
2019-01-11T10:45:52.031Z,2.60
2019-01-11T10:48:34.443Z,2.60
2019-01-11T10:51:19.091Z,2.60
2019-01-11T10:54:00.788Z,2.50
2019-01-11T10:56:42.797Z,2.50
2019-01-11T10:59:24.691Z,2.50
2019-01-11T11:02:06.582Z,2.50
2019-01-11T11:04:49.522Z,2.50
2019-01-11T11:07:31.845Z,2.40
2019-01-11T11:10:13.969Z,2.40
2019-01-11T11:12:56.419Z,2.50
2019-01-11T11:15:40.473Z,2.60
2019-01-11T11:18:22.928Z,2.60
2019-01-11T11:21:05.605Z,2.60
2019-01-11T11:23:48.422Z,2.60
2019-01-11T11:26:30.839Z,2.50
2019-01-11T11:29:12.833Z,2.50
2019-01-11T11:31:54.876Z,2.50
2019-01-11T11:34:39.337Z,2.50
2019-01-11T11:37:21.403Z,2.50
2019-01-11T11:40:03.643Z,2.50
2019-01-11T11:42:45.751Z,2.60
2019-01-11T11:45:27.791Z,2.70
2019-01-11T11:48:10.278Z,2.60
2019-01-11T11:50:52.150Z,2.70
2019-01-11T11:53:34.001Z,2.70
2019-01-11T11:56:16.223Z,2.70
2019-01-11T11:58:58.521Z,2.80
2019-01-11T12:01:41.476Z,2.90
2019-01-11T12:04:23.761Z,2.90
2019-01-11T12:07:07.678Z,3.00
2019-01-11T12:09:50.381Z,3.00
2019-01-11T12:12:32.457Z,3.10
2019-01-11T12:15:14.815Z,3.10
2019-01-11T12:17:57.469Z,3.10
2019-01-11T12:20:39.668Z,3.10
2019-01-11T12:23:21.947Z,3.20
2019-01-11T12:26:04.048Z,3.30
2019-01-11T12:28:46.568Z,3.30
2019-01-11T12:31:29.117Z,3.30
2019-01-11T12:34:11.137Z,3.30
2019-01-11T12:36:53.487Z,3.30
2019-01-11T12:39:35.657Z,3.30
2019-01-11T12:42:17.601Z,3.30
2019-01-11T12:44:59.436Z,3.30
2019-01-11T12:47:41.276Z,3.20
2019-01-11T12:50:23.624Z,3.20
2019-01-11T12:53:05.681Z,3.10
2019-01-11T12:55:47.541Z,3.10
2019-01-11T12:58:29.789Z,3.10
2019-01-11T13:01:12.296Z,3.10
2019-01-11T13:03:54.005Z,3.10
2019-01-11T13:06:36.009Z,3.10
2019-01-11T13:09:18.127Z,3.00
2019-01-11T13:12:00.731Z,3.00
2019-01-11T13:14:42.791Z,3.00
2019-01-11T13:17:24.913Z,2.90
2019-01-11T13:20:06.985Z,2.90
2019-01-11T13:22:49.566Z,2.90
2019-01-11T13:25:32.292Z,2.90
2019-01-11T13:28:14.503Z,2.90
2019-01-11T13:30:57.122Z,3.00
2019-01-11T13:33:41.115Z,3.00
2019-01-11T13:36:23.897Z,3.00
2019-01-11T13:39:07.562Z,3.00
2019-01-11T13:41:49.497Z,3.00
2019-01-11T13:44:31.908Z,2.90
2019-01-11T13:47:13.942Z,2.80
2019-01-11T13:49:56.180Z,2.80
2019-01-11T13:52:38.187Z,2.70
2019-01-11T13:55:20.299Z,2.70
2019-01-11T13:58:02.208Z,2.80
2019-01-11T14:00:44.610Z,2.80
2019-01-11T14:03:27.669Z,2.80
2019-01-11T14:06:09.430Z,2.80
2019-01-11T14:08:51.549Z,2.80
2019-01-11T14:11:33.646Z,2.80
2019-01-11T14:14:15.565Z,2.80
2019-01-11T14:16:57.972Z,2.80
2019-01-11T14:19:40.183Z,2.80
2019-01-11T14:22:22.195Z,2.80
2019-01-11T14:25:04.189Z,2.80
2019-01-11T14:27:46.387Z,2.70
2019-01-11T14:30:28.253Z,2.70
2019-01-11T14:33:10.595Z,2.70
2019-01-11T14:35:53.173Z,2.80
2019-01-11T14:38:35.485Z,2.70
2019-01-11T14:41:18.118Z,2.70
2019-01-11T14:44:00.596Z,2.70
2019-01-11T14:46:42.712Z,2.80
2019-01-11T14:49:24.853Z,2.80
2019-01-11T14:52:06.729Z,2.80
2019-01-11T14:54:48.798Z,2.80
2019-01-11T14:57:30.875Z,2.90
2019-01-11T15:00:13.011Z,2.90
2019-01-11T15:02:55.357Z,3.00
2019-01-11T15:05:37.482Z,3.10
2019-01-11T15:08:19.914Z,3.00
2019-01-11T15:11:01.737Z,3.00
2019-01-11T15:13:44.371Z,3.10
2019-01-11T15:16:26.381Z,3.20
2019-01-11T15:19:14.005Z,3.20
2019-01-11T15:21:41.440Z,3.20
2019-01-11T15:24:12.144Z,3.30
2019-01-11T15:26:43.107Z,3.30
2019-01-11T15:29:32.722Z,3.30
2019-01-11T15:32:22.464Z,3.30
2019-01-11T15:35:31.915Z,3.30
2019-01-11T15:44:53.245Z,3.40
2019-01-11T15:48:02.404Z,3.40
2019-01-11T15:51:11.515Z,3.40
2019-01-11T15:54:20.977Z,3.40
2019-01-11T15:57:49.069Z,3.40
2019-01-11T16:00:57.317Z,3.40
2019-01-11T16:07:09.339Z,3.40
2019-01-11T16:14:13.617Z,3.50
2019-01-11T16:27:12.237Z,3.50
2019-01-11T16:33:31.461Z,3.50
2019-01-11T16:46:24.851Z,3.60
2019-01-11T16:49:34.085Z,3.50
2019-01-11T16:52:46.463Z,3.60
2019-01-11T16:55:53.960Z,3.50
2019-01-11T16:59:02.988Z,3.50
2019-01-11T17:04:54.402Z,3.70
2019-01-11T17:10:58.710Z,3.60
2019-01-11T17:14:07.806Z,3.60
2019-01-11T17:16:57.430Z,3.50
2019-01-11T17:23:36.190Z,3.40
2019-01-11T17:26:45.273Z,3.30
2019-01-11T17:29:54.342Z,3.20
2019-01-11T17:36:33.212Z,3.20
2019-01-11T17:42:24.979Z,3.30
2019-01-11T17:48:35.067Z,3.30
2019-01-11T17:51:44.121Z,3.40
2019-01-11T17:57:35.253Z,3.50
2019-01-11T18:00:44.310Z,3.50
2019-01-11T18:06:49.704Z,3.60
2019-01-11T18:09:58.770Z,3.60
2019-01-11T18:16:15.286Z,3.60
2019-01-11T18:18:57.672Z,3.70
2019-01-11T18:21:39.720Z,3.60
2019-01-11T18:24:22.011Z,3.70
2019-01-11T18:27:04.578Z,3.70
2019-01-11T18:29:47.043Z,4.00
2019-01-11T18:32:28.791Z,4.00
2019-01-11T18:35:10.706Z,4.00
2019-01-11T18:37:52.545Z,3.90
2019-01-11T18:40:34.513Z,3.90
2019-01-11T18:43:16.619Z,3.90
2019-01-11T18:45:58.607Z,3.90
2019-01-11T18:48:41.125Z,3.90
2019-01-11T18:51:23.757Z,3.90
2019-01-11T18:54:06.173Z,4.00
2019-01-11T18:56:48.283Z,4.00
2019-01-11T18:59:30.437Z,4.00
2019-01-11T19:02:12.698Z,4.00
2019-01-11T19:04:54.843Z,4.00
2019-01-11T19:07:36.837Z,4.10
2019-01-11T19:10:18.895Z,4.10
2019-01-11T19:13:01.192Z,4.10
2019-01-11T19:15:43.391Z,4.10
2019-01-11T19:18:25.575Z,4.10
2019-01-11T19:21:07.573Z,4.10
2019-01-11T19:23:49.983Z,4.10
2019-01-11T19:26:32.190Z,4.10
2019-01-11T19:29:14.210Z,4.20
2019-01-11T19:31:56.347Z,4.20
2019-01-11T19:34:38.721Z,4.20
2019-01-11T19:37:20.633Z,4.20
2019-01-11T19:40:02.694Z,4.20
2019-01-11T19:42:44.883Z,4.20
2019-01-11T19:45:27.128Z,4.20
2019-01-11T19:48:09.281Z,4.20
2019-01-11T19:50:51.409Z,4.30
2019-01-11T19:53:33.733Z,4.30
2019-01-11T19:56:16.057Z,4.20
2019-01-11T19:58:58.345Z,4.10
2019-01-11T20:01:41.042Z,4.10
2019-01-11T20:04:23.221Z,4.00
2019-01-11T20:07:05.321Z,4.00
2019-01-11T20:09:47.925Z,4.00
2019-01-11T20:12:30.097Z,4.00
2019-01-11T20:15:12.037Z,3.90
2019-01-11T20:17:54.311Z,3.90
2019-01-11T20:20:36.915Z,3.90
2019-01-11T20:23:18.929Z,4.00
2019-01-11T20:26:01.297Z,4.00
2019-01-11T20:28:44.029Z,4.00
2019-01-11T20:31:26.311Z,4.10
2019-01-11T20:34:08.293Z,4.10
2019-01-11T20:36:50.636Z,4.20
2019-01-11T20:39:32.560Z,4.20
2019-01-11T20:42:14.437Z,4.20
2019-01-11T20:44:56.608Z,4.20
2019-01-11T20:47:38.627Z,4.20
2019-01-11T20:50:21.046Z,4.20
2019-01-11T20:53:03.339Z,4.20
2019-01-11T20:55:45.995Z,4.20
2019-01-11T20:58:28.190Z,4.20
2019-01-11T21:01:12.296Z,4.30
2019-01-11T21:03:54.936Z,4.20
2019-01-11T21:06:37.123Z,4.20
2019-01-11T21:09:19.350Z,4.20
2019-01-11T21:12:01.865Z,4.20
2019-01-11T21:14:44.253Z,4.20
2019-01-11T21:17:27.906Z,4.20
2019-01-11T21:20:10.981Z,4.20
2019-01-11T21:22:53.468Z,4.20
2019-01-11T21:25:35.673Z,4.20
2019-01-11T21:28:18.246Z,4.20
2019-01-11T21:31:00.758Z,4.20
2019-01-11T21:33:42.751Z,4.20
2019-01-11T21:36:25.094Z,4.20
2019-01-11T21:39:07.617Z,4.20
2019-01-11T21:41:50.259Z,4.30
2019-01-11T21:44:32.973Z,4.30
2019-01-11T21:47:16.107Z,4.30
2019-01-11T21:49:58.019Z,4.30
2019-01-11T21:52:39.889Z,4.30
2019-01-11T21:55:22.171Z,4.30
2019-01-11T21:58:04.505Z,4.30
2019-01-11T22:00:47.963Z,4.30
2019-01-11T22:03:29.843Z,4.30
2019-01-11T22:06:11.934Z,4.40
2019-01-11T22:08:54.508Z,4.40
2019-01-11T22:11:36.486Z,4.40
2019-01-11T22:14:18.479Z,4.40
2019-01-11T22:17:00.798Z,4.30
2019-01-11T22:19:42.587Z,4.30
2019-01-11T22:22:24.420Z,4.40
2019-01-11T22:25:06.692Z,4.40
2019-01-11T22:27:49.054Z,4.40
2019-01-11T22:30:31.290Z,4.50
2019-01-11T22:33:13.369Z,4.50
2019-01-11T22:35:55.647Z,4.60
2019-01-11T22:38:37.642Z,4.60
2019-01-11T22:41:20.024Z,4.60
2019-01-11T22:44:03.179Z,4.50
2019-01-11T22:46:45.409Z,4.50
2019-01-11T22:49:27.670Z,4.50
2019-01-11T22:52:09.859Z,4.60
2019-01-11T22:54:52.097Z,4.60
2019-01-11T22:57:33.947Z,4.50
2019-01-11T23:00:15.977Z,4.60
2019-01-11T23:02:58.373Z,4.60
2019-01-11T23:05:40.353Z,4.60
2019-01-11T23:08:22.937Z,4.60
2019-01-11T23:11:10.058Z,4.60
2019-01-11T23:13:52.380Z,4.60
2019-01-11T23:16:34.909Z,4.50
2019-01-11T23:19:17.257Z,4.60
2019-01-11T23:21:59.564Z,4.60
2019-01-11T23:24:41.531Z,4.50
2019-01-11T23:27:23.359Z,4.60
2019-01-11T23:30:05.536Z,4.60
2019-01-11T23:32:47.406Z,4.50
2019-01-11T23:35:31.493Z,4.60
2019-01-11T23:38:13.843Z,4.60
2019-01-11T23:40:56.131Z,4.60
2019-01-11T23:43:38.334Z,4.60
2019-01-11T23:46:20.624Z,4.60
2019-01-11T23:49:02.807Z,4.50
2019-01-11T23:51:45.149Z,4.50
2019-01-11T23:54:27.655Z,4.60
2019-01-11T23:57:09.968Z,4.60
2019-01-11T23:59:51.995Z,4.60
